Epic Barnes — H9ZH — position and weather

sailwx.info

Track history (hours):
 
Tides and Currents Weather Stations Pressure Air Temp Water Temp Dewpoint Dewpoint Depression Visibility Wind Speed Wind Dir Waves Ship Positions

Epic Barnes

Last reported at 2017-Dec-17 04:00 UTC. Time now 2017-Dec-17 04:13 UTC.
Position N 51°24' E 003°25'.

Length 119 m; draft 6 m.

Type: Ship (hazmat cat B). MMSI: 351344000.

Date/timePositionNaut miles runAvg speedWind from/ knotsBaromVisibWave heightAir tempDewpointWater temp
2017-Dec-17 04:00N 51°24' E 003°25'510.8
2017-Dec-17 03:31N 51°24' E 003°16'612.0
2017-Dec-17 03:00N 51°24' E 003°07'612.4
2017-Dec-17 02:30N 51°23' E 002°57'912.7
2017-Dec-17 01:48N 51°22' E 002°42'410.1
2017-Dec-17 01:25N 51°22' E 002°36'4 8.7
2017-Dec-17 00:58N 51°22' E 002°30'4 7.6
2017-Dec-17 00:30N 51°20' E 002°25'4 8.0
2017-Dec-17 00:00N 51°19' E 002°19'4 7.8
2017-Dec-16 23:30N 51°17' E 002°14'4 7.8
2017-Dec-16 23:00N 51°15' E 002°08'4 8.2
2017-Dec-16 22:30N 51°13' E 002°03'510.5
2017-Dec-16 22:00N 51°10' E 001°56'4 8.6
2017-Dec-16 21:30N 51°08' E 001°50'5 9.7
2017-Dec-16 21:00N 51°05' E 001°44'5 9.2
2017-Dec-16 20:30N 51°02' E 001°39'611.4
2017-Dec-16 20:00N 50°57' E 001°32'5911.9
2017-Dec-16 15:01N 50°22' E 000°17'013.3
2017-Dec-16 15:01N 50°22' E 000°17'1112.8
2017-Dec-16 14:11N 50°19' E 000°01'412.6
2017-Dec-16 13:51N 50°18' W 000°05'512.5
2017-Dec-16 13:30N 50°17' W 000°12'9913.3
2017-Dec-16 06:02N 49°51' W 002°41'115.4
2017-Dec-16 05:58N 49°50' W 002°42'10313.5
2017-Dec-15 22:20N 48°59' W 005°00'411.6
2017-Dec-15 22:00N 48°58' W 005°05'711.0
2017-Dec-15 21:23N 48°55' W 005°15'410.6
2017-Dec-15 20:58N 48°53' W 005°20'1010.0
2017-Dec-15 19:56N 48°47' W 005°33'5 9.4
2017-Dec-15 19:26N 48°43' W 005°38'5 8.9
2017-Dec-15 18:50N 48°38' W 005°42'3 8.1
2017-Dec-15 18:25N 48°35' W 005°44'19 6.8
2017-Dec-15 15:36N 48°17' W 005°38'1 6.6
2017-Dec-15 15:30N 48°16' W 005°37'2 4.9
2017-Dec-15 15:00N 48°14' W 005°35'8 6.7
2017-Dec-15 13:50N 48°08' W 005°28'2 6.9
2017-Dec-15 13:30N 48°06' W 005°26'4 7.0
2017-Dec-15 12:58N 48°03' W 005°23'3 5.9
2017-Dec-15 12:30N 48°01' W 005°20'3 6.7
2017-Dec-15 12:00N 47°59' W 005°16'3 5.6
2017-Dec-15 11:28N 47°57' W 005°12'3 6.1
2017-Dec-15 10:58N 47°56' W 005°08'3 6.6
2017-Dec-15 10:30N 47°54' W 005°05'4 7.1
2017-Dec-15 10:00N 47°52' W 005°00'4 7.5
2017-Dec-15 09:30N 47°50' W 004°55'4 8.2
2017-Dec-15 08:58N 47°48' W 004°50'4 7.9
2017-Dec-15 08:30N 47°46' W 004°45'4 8.4
2017-Dec-15 08:00N 47°44' W 004°40'4 7.9
2017-Dec-15 07:30N 47°42' W 004°35'5 9.4
2017-Dec-15 07:00N 47°39' W 004°29'5 9.9
2017-Dec-15 06:29N 47°37' W 004°22'4 9.1
2017-Dec-15 06:00N 47°34' W 004°17'4 8.6
2017-Dec-15 05:30N 47°32' W 004°12'4 8.0
2017-Dec-15 04:58N 47°30' W 004°06'16 6.2
2017-Dec-15 02:27N 47°22' W 003°46'8 5.7
2017-Dec-15 01:00N 47°17' W 003°36'3 5.7
2017-Dec-15 00:30N 47°16' W 003°32'  
2017-Dec-12 13:02N 47°18' W 002°05'0 5.2
2017-Dec-12 12:59N 47°18' W 002°05'6 8.9
2017-Dec-12 12:17N 47°15' W 002°13'412.5
2017-Dec-12 12:00N 47°13' W 002°17'711.2
2017-Dec-12 11:25N 47°07' W 002°22'2 0.5
2017-Dec-12 06:39N 47°07' W 002°25'0 0.0
2017-Dec-12 06:30N 47°07' W 002°25'0 0.0
2017-Dec-12 04:12N 47°07' W 002°25'0 0.0
2017-Dec-12 03:54N 47°07' W 002°25'0 0.1
2017-Dec-12 03:27N 47°07' W 002°25'0 0.1
2017-Dec-12 02:57N 47°07' W 002°26'0 0.0
2017-Dec-12 02:18N 47°07' W 002°26'0 0.1
2017-Dec-12 01:54N 47°07' W 002°26'0 0.1
2017-Dec-12 01:09N 47°07' W 002°25'0 0.0
2017-Dec-12 00:51N 47°07' W 002°25'0 0.0
2017-Dec-12 00:27N 47°07' W 002°25'0 0.0
2017-Dec-12 00:00N 47°07' W 002°25'0 0.0
2017-Dec-11 23:30N 47°07' W 002°25'0 0.0
2017-Dec-11 22:51N 47°07' W 002°25'0 0.0
2017-Dec-11 21:42N 47°07' W 002°25'0 0.0
2017-Dec-11 21:12N 47°07' W 002°25'0 0.0
2017-Dec-11 21:00N 47°07' W 002°25'0 0.0
2017-Dec-11 20:30N 47°07' W 002°25'0 0.0
2017-Dec-11 19:57N 47°07' W 002°25'0 0.0
2017-Dec-11 19:30N 47°07' W 002°25'0 0.0
2017-Dec-11 18:58N 47°07' W 002°25'0 0.0
2017-Dec-11 18:26N 47°07' W 002°25'0 0.0
2017-Dec-11 17:57N 47°07' W 002°25'0 0.0
2017-Dec-10 19:21N 47°07' W 002°25'0 0.0
2017-Dec-10 16:21N 47°07' W 002°25'0 0.0
2017-Dec-10 13:39N 47°07' W 002°25'0 0.0
2017-Dec-10 13:24N 47°07' W 002°25'0 0.0
2017-Dec-10 07:45N 47°07' W 002°25'0 0.0
2017-Dec-10 07:14N 47°07' W 002°25'0 0.1
2017-Dec-10 05:51N 47°07' W 002°25'0 0.1
2017-Dec-10 05:30N 47°07' W 002°25'0 0.1
2017-Dec-10 05:00N 47°07' W 002°25'0 0.0
2017-Dec-10 04:30N 47°07' W 002°25'0 0.0
2017-Dec-10 04:00N 47°07' W 002°25'0 0.1
2017-Dec-10 03:30N 47°07' W 002°25'0 0.0
2017-Dec-10 03:00N 47°07' W 002°25'0 0.0
2017-Dec-10 02:30N 47°07' W 002°25'0 0.0
2017-Dec-10 02:00N 47°07' W 002°25'0 0.0
2017-Dec-10 01:30N 47°07' W 002°25'0 0.0
2017-Dec-10 01:00N 47°07' W 002°25'0 0.1
2017-Dec-10 00:30N 47°07' W 002°25'0 0.0
2017-Dec-09 23:57N 47°07' W 002°25'0 0.1
2017-Dec-09 23:30N 47°07' W 002°25'0 0.0
2017-Dec-09 23:00N 47°07' W 002°25'0 0.0
2017-Dec-09 22:30N 47°07' W 002°25'0 0.0
2017-Dec-09 22:00N 47°07' W 002°25'0 0.0
2017-Dec-09 21:24N 47°07' W 002°25'0 0.0
2017-Dec-09 21:00N 47°07' W 002°25'0 0.0
2017-Dec-09 20:30N 47°07' W 002°25'0 0.0
2017-Dec-09 20:00N 47°07' W 002°25'0 0.6
2017-Dec-09 19:30N 47°07' W 002°25'2 5.0
2017-Dec-09 19:00N 47°05' W 002°25'57412.3
2017-Dec-07 20:12N 39°15' W 009°56'314.0
2017-Dec-07 20:00N 39°12' W 009°56'714.3
2017-Dec-07 19:30N 39°05' W 009°56'714.4
2017-Dec-07 19:01N 38°58' W 009°56'714.0
2017-Dec-07 18:31N 38°51' W 009°56'714.5
2017-Dec-07 18:00N 38°43' W 009°56'714.5
2017-Dec-07 17:30N 38°36' W 009°56'714.4
2017-Dec-07 17:00N 38°29' W 009°53'714.4
2017-Dec-07 16:30N 38°22' W 009°50'714.6
2017-Dec-07 16:00N 38°15' W 009°49'714.2
2017-Dec-07 15:30N 38°08' W 009°47'1914.5
2017-Dec-07 14:12N 37°50' W 009°42'314.2
2017-Dec-07 13:59N 37°47' W 009°41'814.5
2017-Dec-07 13:25N 37°39' W 009°39'8412.6
2017-Dec-07 06:47N 36°33' W 008°34'  
Track history (hours):
 
Tides and Currents Weather Stations Pressure Air Temp Water Temp Dewpoint Dewpoint Depression Visibility Wind Speed Wind Dir Waves Ship Positions

Epic Barnes

Last reported at 2017-Dec-17 04:00 UTC. Time now 2017-Dec-17 04:13 UTC.
Position N 51°24' E 003°25'.

Length 119 m; draft 6 m.

Type: Ship (hazmat cat B). MMSI: 351344000.

Date/timePositionNaut miles runAvg speedWind from/ knotsBaromVisibWave heightAir tempDewpointWater temp
2017-Dec-17 04:00N 51°24' E 003°25'510.8
2017-Dec-17 03:31N 51°24' E 003°16'612.0
2017-Dec-17 03:00N 51°24' E 003°07'612.4
2017-Dec-17 02:30N 51°23' E 002°57'912.7
2017-Dec-17 01:48N 51°22' E 002°42'410.1
2017-Dec-17 01:25N 51°22' E 002°36'4 8.7
2017-Dec-17 00:58N 51°22' E 002°30'4 7.6
2017-Dec-17 00:30N 51°20' E 002°25'4 8.0
2017-Dec-17 00:00N 51°19' E 002°19'4 7.8
2017-Dec-16 23:30N 51°17' E 002°14'4 7.8
2017-Dec-16 23:00N 51°15' E 002°08'4 8.2
2017-Dec-16 22:30N 51°13' E 002°03'510.5
2017-Dec-16 22:00N 51°10' E 001°56'4 8.6
2017-Dec-16 21:30N 51°08' E 001°50'5 9.7
2017-Dec-16 21:00N 51°05' E 001°44'5 9.2
2017-Dec-16 20:30N 51°02' E 001°39'611.4
2017-Dec-16 20:00N 50°57' E 001°32'5911.9
2017-Dec-16 15:01N 50°22' E 000°17'013.3
2017-Dec-16 15:01N 50°22' E 000°17'1112.8
2017-Dec-16 14:11N 50°19' E 000°01'412.6
2017-Dec-16 13:51N 50°18' W 000°05'512.5
2017-Dec-16 13:30N 50°17' W 000°12'9913.3
2017-Dec-16 06:02N 49°51' W 002°41'115.4
2017-Dec-16 05:58N 49°50' W 002°42'10313.5
2017-Dec-15 22:20N 48°59' W 005°00'411.6
2017-Dec-15 22:00N 48°58' W 005°05'711.0
2017-Dec-15 21:23N 48°55' W 005°15'410.6
2017-Dec-15 20:58N 48°53' W 005°20'1010.0
2017-Dec-15 19:56N 48°47' W 005°33'5 9.4
2017-Dec-15 19:26N 48°43' W 005°38'5 8.9
2017-Dec-15 18:50N 48°38' W 005°42'3 8.1
2017-Dec-15 18:25N 48°35' W 005°44'19 6.8
2017-Dec-15 15:36N 48°17' W 005°38'1 6.6
2017-Dec-15 15:30N 48°16' W 005°37'2 4.9
2017-Dec-15 15:00N 48°14' W 005°35'8 6.7
2017-Dec-15 13:50N 48°08' W 005°28'2 6.9
2017-Dec-15 13:30N 48°06' W 005°26'4 7.0
2017-Dec-15 12:58N 48°03' W 005°23'3 5.9
2017-Dec-15 12:30N 48°01' W 005°20'3 6.7
2017-Dec-15 12:00N 47°59' W 005°16'3 5.6
2017-Dec-15 11:28N 47°57' W 005°12'3 6.1
2017-Dec-15 10:58N 47°56' W 005°08'3 6.6
2017-Dec-15 10:30N 47°54' W 005°05'4 7.1
2017-Dec-15 10:00N 47°52' W 005°00'4 7.5
2017-Dec-15 09:30N 47°50' W 004°55'4 8.2
2017-Dec-15 08:58N 47°48' W 004°50'4 7.9
2017-Dec-15 08:30N 47°46' W 004°45'4 8.4
2017-Dec-15 08:00N 47°44' W 004°40'4 7.9
2017-Dec-15 07:30N 47°42' W 004°35'5 9.4
2017-Dec-15 07:00N 47°39' W 004°29'5 9.9
2017-Dec-15 06:29N 47°37' W 004°22'4 9.1
2017-Dec-15 06:00N 47°34' W 004°17'4 8.6
2017-Dec-15 05:30N 47°32' W 004°12'4 8.0
2017-Dec-15 04:58N 47°30' W 004°06'16 6.2
2017-Dec-15 02:27N 47°22' W 003°46'8 5.7
2017-Dec-15 01:00N 47°17' W 003°36'3 5.7
2017-Dec-15 00:30N 47°16' W 003°32'  
2017-Dec-12 13:02N 47°18' W 002°05'0 5.2
2017-Dec-12 12:59N 47°18' W 002°05'6 8.9
2017-Dec-12 12:17N 47°15' W 002°13'412.5
2017-Dec-12 12:00N 47°13' W 002°17'711.2
2017-Dec-12 11:25N 47°07' W 002°22'2 0.5
2017-Dec-12 06:39N 47°07' W 002°25'0 0.0
2017-Dec-12 06:30N 47°07' W 002°25'0 0.0
2017-Dec-12 04:12N 47°07' W 002°25'0 0.0
2017-Dec-12 03:54N 47°07' W 002°25'0 0.1
2017-Dec-12 03:27N 47°07' W 002°25'0 0.1
2017-Dec-12 02:57N 47°07' W 002°26'0 0.0
2017-Dec-12 02:18N 47°07' W 002°26'0 0.1
2017-Dec-12 01:54N 47°07' W 002°26'0 0.1
2017-Dec-12 01:09N 47°07' W 002°25'0 0.0
2017-Dec-12 00:51N 47°07' W 002°25'0 0.0
2017-Dec-12 00:27N 47°07' W 002°25'0 0.0
2017-Dec-12 00:00N 47°07' W 002°25'0 0.0
2017-Dec-11 23:30N 47°07' W 002°25'0 0.0
2017-Dec-11 22:51N 47°07' W 002°25'0 0.0
2017-Dec-11 21:42N 47°07' W 002°25'0 0.0
2017-Dec-11 21:12N 47°07' W 002°25'0 0.0
2017-Dec-11 21:00N 47°07' W 002°25'0 0.0
2017-Dec-11 20:30N 47°07' W 002°25'0 0.0
2017-Dec-11 19:57N 47°07' W 002°25'0 0.0
2017-Dec-11 19:30N 47°07' W 002°25'0 0.0
2017-Dec-11 18:58N 47°07' W 002°25'0 0.0
2017-Dec-11 18:26N 47°07' W 002°25'0 0.0
2017-Dec-11 17:57N 47°07' W 002°25'0 0.0
2017-Dec-10 19:21N 47°07' W 002°25'0 0.0
2017-Dec-10 16:21N 47°07' W 002°25'0 0.0
2017-Dec-10 13:39N 47°07' W 002°25'0 0.0
2017-Dec-10 13:24N 47°07' W 002°25'0 0.0
2017-Dec-10 07:45N 47°07' W 002°25'0 0.0
2017-Dec-10 07:14N 47°07' W 002°25'0 0.1
2017-Dec-10 05:51N 47°07' W 002°25'0 0.1
2017-Dec-10 05:30N 47°07' W 002°25'0 0.1
2017-Dec-10 05:00N 47°07' W 002°25'0 0.0
2017-Dec-10 04:30N 47°07' W 002°25'0 0.0
2017-Dec-10 04:00N 47°07' W 002°25'0 0.1
2017-Dec-10 03:30N 47°07' W 002°25'0 0.0
2017-Dec-10 03:00N 47°07' W 002°25'0 0.0
2017-Dec-10 02:30N 47°07' W 002°25'0 0.0
2017-Dec-10 02:00N 47°07' W 002°25'0 0.0
2017-Dec-10 01:30N 47°07' W 002°25'0 0.0
2017-Dec-10 01:00N 47°07' W 002°25'0 0.1
2017-Dec-10 00:30N 47°07' W 002°25'0 0.0
2017-Dec-09 23:57N 47°07' W 002°25'0 0.1
2017-Dec-09 23:30N 47°07' W 002°25'0 0.0
2017-Dec-09 23:00N 47°07' W 002°25'0 0.0
2017-Dec-09 22:30N 47°07' W 002°25'0 0.0
2017-Dec-09 22:00N 47°07' W 002°25'0 0.0
2017-Dec-09 21:24N 47°07' W 002°25'0 0.0
2017-Dec-09 21:00N 47°07' W 002°25'0 0.0
2017-Dec-09 20:30N 47°07' W 002°25'0 0.0
2017-Dec-09 20:00N 47°07' W 002°25'0 0.6
2017-Dec-09 19:30N 47°07' W 002°25'2 5.0
2017-Dec-09 19:00N 47°05' W 002°25'57412.3
2017-Dec-07 20:12N 39°15' W 009°56'314.0
2017-Dec-07 20:00N 39°12' W 009°56'714.3
2017-Dec-07 19:30N 39°05' W 009°56'714.4
2017-Dec-07 19:01N 38°58' W 009°56'714.0
2017-Dec-07 18:31N 38°51' W 009°56'714.5
2017-Dec-07 18:00N 38°43' W 009°56'714.5
2017-Dec-07 17:30N 38°36' W 009°56'714.4
2017-Dec-07 17:00N 38°29' W 009°53'714.4
2017-Dec-07 16:30N 38°22' W 009°50'714.6
2017-Dec-07 16:00N 38°15' W 009°49'714.2
2017-Dec-07 15:30N 38°08' W 009°47'1914.5
2017-Dec-07 14:12N 37°50' W 009°42'314.2
2017-Dec-07 13:59N 37°47' W 009°41'814.5
2017-Dec-07 13:25N 37°39' W 009°39'8412.6
2017-Dec-07 06:47N 36°33' W 008°34'  

Dump ship's entire track history